Briefing drone pour Les angles

Rechercher une autre localisation

Conditions de vol :


Nous sommes le : Lundi 27 septembre 2021
Il est 01:52 UTC (03:52 LT)

Lever de soleil : 05:07 UTC (07:07 LT)
Coucher de soleil : 17:56 UTC (19:56 LT)

Météo

L'essentiel des conditions de vol

VIGILANCE MÉTÉO FRANCE - Gard (30)
Pas de vigilances particulieres
CARTE TEMSI
CARTES DES FRONTS
METAR de LFMV
LFMV 270130Z AUTO 00000KT 3700 BR NSC 15/14 Q1018

Date d'émission: 27/09/2021
Heure d'émission: 01:30 UTC
Vent: Calme
Visibilité horizontale: 3700 m
Plafond : Pas de nuages significatifs (NSC)
Température: 15 °C
Point de rosée: 14 °C
Humidité: 94%
Pression (QNH): 1018 hPa
Conditions: Brume
TAF de LFMV
AMD LFMV 261904Z 2619/2715 CNL

Conditions prévues :

Heure d'émission : Bulletin éffectué le 26 à 19:00 UTC
Prévision : Valide du 26 a 19:00 UTC au 27 a 15:00 UTC
Nuages : à 0ft (0 m)
WEBCAM POUR LES ANGLES

Réglementation

Voler en sécurité

CARTES AERONAUTIQUE 1/500.000
CARTES VAC (LFMV)
SUP AIP




Chargement des AIP...
NOTAM (LES ANGLES + Terrain à proximité / FIR )




Chargement des NOTAMS...
CONTACT PREFECTURE 30


Avertissement : Les données mises à disposition sont indicatives. Oxygène Drone ne pourra être tenu responsable de dégâts causés aux biens et aux personnes.